Time,TemperatureF,DewpointF,PressureIn,WindDirection,WindDirectionDegrees,WindSpeedMPH,WindSpeedGustMPH,Humidity,HourlyPrecipIn,Conditions,Clouds,dailyrainin,SolarRadiationWatts/m^2,SoftwareType,DateUTC
2013-01-26 00:00:00,40.3,39.8,30.21,West,263,2.0,8.0,98,0.00,RA,,0.00,0.0,WeatherDisplay:10.37,2013-01-26 05:00:00,
2013-01-26 00:01:00,40.4,39.9,30.21,West,263,3.5,3.5,98,0.04,RA,,0.00,0.0,WeatherDisplay:10.37,2013-01-26 05:01:00,
2013-01-26 00:02:00,40.4,39.9,30.21,West,263,3.5,3.5,98,0.04,RA,,0.00,0.0,WeatherDisplay:10.37,2013-01-26 05:02:00,
2013-01-26 00:08:00,40.2,39.7,30.21,West,263,4.6,4.6,98,0.04,RA,,0.01,0.0,WeatherDisplay:10.37,2013-01-26 05:08:00,
2013-01-26 00:13:00,39.7,38.9,30.21,West,263,3.5,3.5,97,0.05,RA,,0.01,0.0,WeatherDisplay:10.37,2013-01-26 05:13:00,
2013-01-26 00:18:00,39.5,38.7,30.21,West,263,3.5,3.5,97,0.04,,,0.01,0.0,WeatherDisplay:10.37,2013-01-26 05:18:00,
2013-01-26 00:23:00,39.1,38.3,30.21,West,263,0.0,0.0,97,0.04,CLR,,0.01,0.0,WeatherDisplay:10.37,2013-01-26 05:23:00,
2013-01-26 00:29:00,39.1,38.3,30.20,West,263,4.0,4.0,97,0.04,CLR,,0.01,0.0,WeatherDisplay:10.37,2013-01-26 05:29:00,
2013-01-26 00:34:00,39.8,39.0,30.21,West,262,9.2,9.2,97,0.02,CLR,,0.01,0.0,WeatherDisplay:10.37,2013-01-26 05:34:00,
2013-01-26 00:39:00,39.9,39.4,30.20,West,274,10.0,10.0,98,0.02,CLR,,0.01,0.0,WeatherDisplay:10.37,2013-01-26 05:39:00,
2013-01-26 00:44:00,40.0,39.5,30.21,West,278,5.8,5.8,98,0.02,CLR,,0.01,0.0,WeatherDisplay:10.37,2013-01-26 05:44:00,
2013-01-26 00:50:00,40.2,39.7,30.21,West,278,5.0,5.0,98,0.02,CLR,,0.01,0.0,WeatherDisplay:10.37,2013-01-26 05:50:00,
2013-01-26 00:55:00,39.9,39.1,30.20,West,278,0.0,0.0,97,0.01,CLR,,0.01,0.0,WeatherDisplay:10.37,2013-01-26 05:55:00,
2013-01-26 01:00:00,39.4,38.6,30.21,West,278,0.0,0.0,97,0.01,CLR,,0.01,0.0,WeatherDisplay:10.37,2013-01-26 06:00:00,
2013-01-26 01:05:00,39.4,38.6,30.21,West,278,3.5,3.5,97,0.02,RA,,0.02,0.0,WeatherDisplay:10.37,2013-01-26 06:05:00,
2013-01-26 01:10:00,39.5,38.7,30.21,West,278,3.0,3.0,97,0.01,RA,,0.02,0.0,WeatherDisplay:10.37,2013-01-26 06:10:00,
2013-01-26 01:15:00,39.6,38.8,30.21,West,278,3.0,3.0,97,0.01,,,0.02,0.0,WeatherDisplay:10.37,2013-01-26 06:15:00,
2013-01-26 01:21:00,39.6,38.8,30.21,West,278,3.5,3.5,97,0.01,CLR,,0.02,0.0,WeatherDisplay:10.37,2013-01-26 06:21:00,
2013-01-26 01:26:00,39.5,38.7,30.20,West,278,0.0,0.0,97,0.01,CLR,,0.02,0.0,WeatherDisplay:10.37,2013-01-26 06:26:00,
2013-01-26 01:31:00,39.6,38.8,30.20,West,278,3.5,3.5,97,0.01,CLR,,0.02,0.0,WeatherDisplay:10.37,2013-01-26 06:31:00,
2013-01-26 01:36:00,39.7,38.9,30.20,West,278,0.0,0.0,97,0.01,CLR,,0.02,0.0,WeatherDisplay:10.37,2013-01-26 06:36:00,
2013-01-26 01:41:00,39.6,38.8,30.20,West,278,1.2,0.0,97,0.01,CLR,,0.02,0.0,WeatherDisplay:10.37,2013-01-26 06:41:00,
2013-01-26 01:46:00,39.5,38.7,30.20,West,278,0.0,0.0,97,0.01,CLR,,0.02,0.0,WeatherDisplay:10.37,2013-01-26 06:46:00,
2013-01-26 01:52:00,38.9,38.1,30.20,West,278,0.0,0.0,97,0.01,CLR,,0.02,0.0,WeatherDisplay:10.37,2013-01-26 06:52:00,
2013-01-26 01:57:00,38.2,37.2,30.20,West,278,0.0,0.0,96,0.01,CLR,,0.02,0.0,WeatherDisplay:10.37,2013-01-26 06:57:00,
2013-01-26 02:02:00,37.2,36.2,30.20,West,278,4.0,4.0,96,0.01,CLR,,0.02,0.0,WeatherDisplay:10.37,2013-01-26 07:02:00,
2013-01-26 02:07:00,36.9,35.9,30.21,West,278,4.0,4.0,96,0.00,CLR,,0.02,0.0,WeatherDisplay:10.37,2013-01-26 07:07:00,
2013-01-26 02:12:00,36.8,35.8,30.21,West,278,3.5,0.0,96,0.00,CLR,,0.02,0.0,WeatherDisplay:10.37,2013-01-26 07:12:00,
2013-01-26 02:18:00,36.5,35.5,30.20,West,278,0.0,0.0,96,0.00,CLR,,0.02,0.0,WeatherDisplay:10.37,2013-01-26 07:18:00,
2013-01-26 02:23:00,36.7,35.9,30.20,West,275,7.0,7.0,97,0.00,CLR,,0.02,0.0,WeatherDisplay:10.37,2013-01-26 07:23:00,
2013-01-26 02:28:00,36.7,35.9,30.21,West,275,3.5,3.5,97,0.00,CLR,,0.02,0.0,WeatherDisplay:10.37,2013-01-26 07:28:00,
2013-01-26 02:33:00,36.5,35.7,30.20,West,275,3.5,3.5,97,0.00,CLR,,0.02,0.0,WeatherDisplay:10.37,2013-01-26 07:33:00,
2013-01-26 02:38:00,36.2,35.2,30.20,West,275,3.5,3.5,96,0.00,CLR,,0.02,0.0,WeatherDisplay:10.37,2013-01-26 07:38:00,
2013-01-26 02:44:00,36.2,35.4,30.20,West,275,3.0,3.0,97,0.00,CLR,,0.02,0.0,WeatherDisplay:10.37,2013-01-26 07:44:00,
2013-01-26 02:49:00,36.1,35.3,30.20,West,275,2.0,2.0,97,0.00,CLR,,0.02,0.0,WeatherDisplay:10.37,2013-01-26 07:49:00,
2013-01-26 02:54:00,36.2,35.4,30.20,West,277,3.5,0.0,97,0.00,CLR,,0.02,0.0,WeatherDisplay:10.37,2013-01-26 07:54:00,
2013-01-26 02:59:00,36.0,35.2,30.20,North,355,6.0,6.0,97,0.00,CLR,,0.02,0.0,WeatherDisplay:10.37,2013-01-26 07:59:00,
2013-01-26 03:04:00,35.6,34.8,30.20,NNE,22,5.0,5.0,97,0.00,CLR,,0.02,0.0,WeatherDisplay:10.37,2013-01-26 08:04:00,
2013-01-26 03:09:00,35.6,34.8,30.21,NNE,21,3.0,3.0,97,0.00,CLR,,0.02,0.0,WeatherDisplay:10.37,2013-01-26 08:09:00,
2013-01-26 03:15:00,35.4,34.6,30.21,NNE,13,5.0,5.0,97,0.00,CLR,,0.02,0.0,WeatherDisplay:10.37,2013-01-26 08:15:00,
2013-01-26 03:20:00,35.6,34.8,30.21,NE,44,11.5,11.5,97,0.00,CLR,,0.02,0.0,WeatherDisplay:10.37,2013-01-26 08:20:00,
2013-01-26 03:25:00,37.3,36.5,30.21,NNE,17,15.0,15.0,97,0.00,CLR,,0.02,0.0,WeatherDisplay:10.37,2013-01-26 08:25:00,
2013-01-26 03:30:00,39.5,37.6,30.21,North,9,11.5,11.5,93,0.00,CLR,,0.02,0.0,WeatherDisplay:10.37,2013-01-26 08:30:00,
2013-01-26 03:35:00,41.0,36.2,30.21,North,10,12.7,12.7,83,0.00,CLR,,0.02,0.0,WeatherDisplay:10.37,2013-01-26 08:35:00,
2013-01-26 03:40:00,42.1,35.7,30.21,NNE,13,15.0,15.0,78,0.01,RA,,0.04,0.0,WeatherDisplay:10.37,2013-01-26 08:40:00,
2013-01-26 03:45:00,42.3,34.9,30.21,North,355,9.0,9.0,75,0.01,RA,,0.04,0.0,WeatherDisplay:10.37,2013-01-26 08:45:00,
2013-01-26 03:51:00,41.5,34.8,30.21,North,5,3.5,3.5,77,0.01,CLR,,0.04,0.0,WeatherDisplay:10.37,2013-01-26 08:51:00,
2013-01-26 03:56:00,39.2,34.8,30.22,WSW,245,4.0,4.0,84,0.01,CLR,,0.04,0.0,WeatherDisplay:10.37,2013-01-26 08:56:00,
2013-01-26 04:01:00,38.0,35.0,30.22,WSW,245,2.3,2.3,89,0.01,CLR,,0.04,0.0,WeatherDisplay:10.37,2013-01-26 09:01:00,
2013-01-26 04:06:00,37.3,34.6,30.22,WSW,245,2.0,2.0,90,0.01,CLR,,0.04,0.0,WeatherDisplay:10.37,2013-01-26 09:06:00,
2013-01-26 04:12:00,36.9,34.5,30.22,WSW,245,5.0,5.0,91,0.01,CLR,,0.04,0.0,WeatherDisplay:10.37,2013-01-26 09:12:00,
2013-01-26 04:17:00,36.4,34.3,30.22,East,88,0.0,0.0,92,0.01,CLR,,0.04,0.0,WeatherDisplay:10.37,2013-01-26 09:17:00,
2013-01-26 04:22:00,36.0,34.2,30.21,North,355,5.0,5.0,93,0.01,CLR,,0.04,0.0,WeatherDisplay:10.37,2013-01-26 09:22:00,
2013-01-26 04:27:00,35.6,33.8,30.22,NNE,30,10.0,10.0,93,0.01,CLR,,0.04,0.0,WeatherDisplay:10.37,2013-01-26 09:27:00,
2013-01-26 04:32:00,35.1,33.3,30.22,North,355,3.5,0.0,93,0.01,CLR,,0.04,0.0,WeatherDisplay:10.37,2013-01-26 09:32:00,
2013-01-26 04:38:00,34.6,32.8,30.22,North,5,2.0,2.0,93,0.00,CLR,,0.04,0.0,WeatherDisplay:10.37,2013-01-26 09:38:00,
2013-01-26 04:43:00,34.3,32.8,30.22,NNE,12,14.0,14.0,94,0.00,CLR,,0.04,0.0,WeatherDisplay:10.37,2013-01-26 09:43:00,
2013-01-26 04:48:00,34.9,33.3,30.22,NNW,344,13.8,13.8,94,0.00,CLR,,0.04,0.0,WeatherDisplay:10.37,2013-01-26 09:48:00,
2013-01-26 04:53:00,37.1,33.3,30.21,North,9,17.0,17.0,86,0.00,CLR,,0.04,0.0,WeatherDisplay:10.37,2013-01-26 09:53:00,
2013-01-26 04:58:00,39.4,32.8,30.21,NNE,20,17.3,17.3,77,0.00,CLR,,0.04,0.0,WeatherDisplay:10.37,2013-01-26 09:58:00,
2013-01-26 05:03:00,40.4,31.7,30.21,NE,34,18.4,18.4,71,0.00,CLR,,0.04,0.0,WeatherDisplay:10.37,2013-01-26 10:03:00,
2013-01-26 05:09:00,41.4,32.0,30.21,NNE,19,16.1,16.1,69,0.00,CLR,,0.04,0.0,WeatherDisplay:10.37,2013-01-26 10:09:00,
2013-01-26 05:14:00,41.6,31.8,30.22,North,10,16.1,16.1,68,0.00,CLR,,0.04,0.0,WeatherDisplay:10.37,2013-01-26 10:14:00,
2013-01-26 05:19:00,41.6,30.7,30.22,North,9,17.3,17.3,65,0.00,CLR,,0.04,0.0,WeatherDisplay:10.37,2013-01-26 10:19:00,
2013-01-26 05:24:00,41.4,29.7,30.22,NNE,15,19.6,19.6,63,0.00,CLR,,0.04,0.0,WeatherDisplay:10.37,2013-01-26 10:24:00,
2013-01-26 05:29:00,41.7,29.6,30.22,NNW,348,19.6,19.6,62,0.00,CLR,,0.04,0.0,WeatherDisplay:10.37,2013-01-26 10:29:00,
2013-01-26 05:34:00,41.9,29.8,30.22,NNE,17,17.3,17.3,62,0.00,CLR,,0.04,0.0,WeatherDisplay:10.37,2013-01-26 10:34:00,
2013-01-26 05:40:00,41.6,29.1,30.22,North,11,15.0,15.0,61,0.00,CLR,,0.04,0.0,WeatherDisplay:10.37,2013-01-26 10:40:00,
2013-01-26 05:45:00,41.9,28.2,30.22,North,5,19.6,19.6,58,0.00,CLR,,0.04,0.0,WeatherDisplay:10.37,2013-01-26 10:45:00,
2013-01-26 05:50:00,41.9,29.0,30.22,NNE,22,23.0,23.0,60,0.00,CLR,,0.04,0.0,WeatherDisplay:10.37,2013-01-26 10:50:00,
2013-01-26 05:55:00,42.2,28.0,30.22,North,9,19.6,19.6,57,0.00,CLR,,0.04,0.0,WeatherDisplay:10.37,2013-01-26 10:55:00,
2013-01-26 06:00:00,42.4,28.7,30.22,North,360,16.1,16.1,58,0.00,CLR,,0.04,0.0,WeatherDisplay:10.37,2013-01-26 11:00:00,
2013-01-26 06:05:00,42.1,28.4,30.22,NNW,348,13.8,13.8,58,0.00,CLR,,0.04,0.0,WeatherDisplay:10.37,2013-01-26 11:05:00,
2013-01-26 06:11:00,41.8,27.7,30.22,NNW,341,16.1,16.1,57,0.00,CLR,,0.04,0.0,WeatherDisplay:10.37,2013-01-26 11:11:00,
2013-01-26 06:16:00,41.7,27.6,30.22,NNE,27,17.3,17.3,57,0.00,CLR,,0.04,0.0,WeatherDisplay:10.37,2013-01-26 11:16:00,
2013-01-26 06:21:00,42.4,27.4,30.22,NNW,334,19.6,19.6,55,0.00,CLR,,0.04,0.0,WeatherDisplay:10.37,2013-01-26 11:21:00,
2013-01-26 06:26:00,41.7,29.6,30.22,NW,311,6.9,6.9,62,0.00,CLR,,0.04,0.0,WeatherDisplay:10.37,2013-01-26 11:26:00,
2013-01-26 06:31:00,39.3,32.0,30.22,NNE,30,11.5,11.5,75,0.00,CLR,,0.04,0.0,WeatherDisplay:10.37,2013-01-26 11:31:00,
2013-01-26 06:36:00,37.1,31.8,30.23,NNW,344,4.0,4.0,81,0.00,CLR,,0.04,0.0,WeatherDisplay:10.37,2013-01-26 11:36:00,
2013-01-26 06:42:00,36.4,30.5,30.23,NNW,329,12.7,12.7,79,0.00,CLR,,0.04,0.0,WeatherDisplay:10.37,2013-01-26 11:42:00,
2013-01-26 06:47:00,36.9,30.4,30.24,North,350,13.0,13.0,77,0.00,CLR,,0.04,0.0,WeatherDisplay:10.37,2013-01-26 11:47:00,
2013-01-26 06:52:00,38.4,30.8,30.24,NNE,26,13.0,13.0,74,0.00,CLR,,0.04,0.0,WeatherDisplay:10.37,2013-01-26 11:52:00,
2013-01-26 06:57:00,39.2,27.3,30.24,NNE,17,16.1,16.1,62,0.00,CLR,,0.04,0.0,WeatherDisplay:10.37,2013-01-26 11:57:00,
2013-01-26 07:02:00,40.9,26.8,30.24,North,5,15.0,15.0,57,0.00,CLR,,0.04,0.0,WeatherDisplay:10.37,2013-01-26 12:02:00,
2013-01-26 07:07:00,41.8,25.9,30.24,NNE,22,16.1,16.1,53,0.00,CLR,,0.04,0.0,WeatherDisplay:10.37,2013-01-26 12:07:00,
2013-01-26 07:12:00,42.2,26.7,30.24,NNE,18,11.5,11.5,54,0.00,OVC,,0.04,0.0,WeatherDisplay:10.37,2013-01-26 12:12:00,
2013-01-26 07:18:00,42.1,26.2,30.24,NNE,31,15.0,15.0,53,0.00,OVC,,0.04,0.0,WeatherDisplay:10.37,2013-01-26 12:18:00,
2013-01-26 07:23:00,41.9,26.4,30.24,NE,49,18.4,18.4,54,0.00,OVC,,0.04,0.0,WeatherDisplay:10.37,2013-01-26 12:23:00,
2013-01-26 07:28:00,41.8,25.9,30.25,North,9,17.3,17.3,53,0.00,OVC,,0.04,0.0,WeatherDisplay:10.37,2013-01-26 12:28:00,
2013-01-26 07:33:00,41.7,26.7,30.25,NNE,15,15.0,15.0,55,0.00,OVC,,0.04,0.0,WeatherDisplay:10.37,2013-01-26 12:33:00,
2013-01-26 07:39:00,41.7,26.3,30.25,NNE,18,17.3,17.3,54,0.00,OVC,,0.04,0.0,WeatherDisplay:10.37,2013-01-26 12:39:00,
2013-01-26 07:44:00,41.9,25.5,30.25,North,9,17.3,17.3,52,0.00,OVC,,0.04,0.0,WeatherDisplay:10.37,2013-01-26 12:44:00,
2013-01-26 07:49:00,42.3,25.4,30.25,NNE,16,11.5,11.5,51,0.00,OVC,,0.04,5.0,WeatherDisplay:10.37,2013-01-26 12:49:00,
2013-01-26 07:54:00,42.3,25.0,30.25,North,9,12.7,12.7,50,0.00,OVC,,0.04,9.0,WeatherDisplay:10.37,2013-01-26 12:54:00,
2013-01-26 08:00:00,42.2,25.8,30.25,NNW,342,11.5,11.5,52,0.00,OVC,,0.04,12.0,WeatherDisplay:10.37,2013-01-26 13:00:00,
2013-01-26 08:05:00,42.3,25.4,30.25,NNW,343,11.5,11.5,51,0.00,OVC,,0.04,16.0,WeatherDisplay:10.37,2013-01-26 13:05:00,
2013-01-26 08:10:00,42.0,31.4,30.26,North,358,3.0,17.0,66,0.00,OVC,,0.04,23.0,WeatherDisplay:10.37,2013-01-26 13:10:00,
2013-01-26 08:15:00,39.8,31.5,30.26,North,355,3.5,3.5,72,0.00,OVC,,0.04,32.0,WeatherDisplay:10.37,2013-01-26 13:15:00,
2013-01-26 08:20:00,38.4,31.8,30.25,North,351,4.6,4.6,77,0.00,OVC,,0.04,35.0,WeatherDisplay:10.37,2013-01-26 13:20:00,
2013-01-26 08:26:00,37.5,31.6,30.26,North,351,3.5,3.5,79,0.00,OVC,,0.04,40.0,WeatherDisplay:10.37,2013-01-26 13:26:00,
2013-01-26 08:31:00,37.1,31.5,30.26,North,351,3.5,3.5,80,0.00,OVC,,0.04,46.0,WeatherDisplay:10.37,2013-01-26 13:31:00,
2013-01-26 08:36:00,36.7,31.7,30.26,North,351,2.3,2.3,82,0.00,OVC,,0.04,53.0,WeatherDisplay:10.37,2013-01-26 13:36:00,
2013-01-26 08:41:00,36.5,31.8,30.26,North,351,3.5,3.5,83,0.00,OVC,,0.04,58.0,WeatherDisplay:10.37,2013-01-26 13:41:00,
2013-01-26 08:47:00,36.4,31.7,30.27,North,351,1.2,0.0,83,0.00,OVC,,0.04,67.0,WeatherDisplay:10.37,2013-01-26 13:47:00,
2013-01-26 08:52:00,36.4,32.0,30.27,North,351,3.5,3.5,84,0.00,OVC,,0.04,74.0,WeatherDisplay:10.37,2013-01-26 13:52:00,
2013-01-26 08:57:00,36.5,32.1,30.27,North,351,4.6,4.6,84,0.00,OVC,,0.04,77.0,WeatherDisplay:10.37,2013-01-26 13:57:00,
2013-01-26 09:02:00,36.6,32.2,30.27,North,350,4.0,4.0,84,0.00,OVC,,0.04,83.0,WeatherDisplay:10.37,2013-01-26 14:02:00,
2013-01-26 09:08:00,36.7,32.3,30.28,North,350,0.0,0.0,84,0.00,OVC,,0.04,97.0,WeatherDisplay:10.37,2013-01-26 14:08:00,
2013-01-26 09:13:00,36.9,32.8,30.28,North,350,4.6,4.6,85,0.00,OVC,,0.04,116.0,WeatherDisplay:10.37,2013-01-26 14:13:00,
2013-01-26 09:18:00,37.0,32.6,30.28,North,350,4.6,4.6,84,0.00,OVC,,0.04,127.0,WeatherDisplay:10.37,2013-01-26 14:18:00,
2013-01-26 09:23:00,37.3,32.9,30.28,North,350,0.0,0.0,84,0.00,OVC,,0.04,132.0,WeatherDisplay:10.37,2013-01-26 14:23:00,
2013-01-26 09:28:00,37.5,33.7,30.28,North,350,0.0,0.0,86,0.00,OVC,,0.04,125.0,WeatherDisplay:10.37,2013-01-26 14:28:00,
2013-01-26 09:33:00,37.5,33.7,30.28,North,350,0.0,0.0,86,0.00,OVC,,0.04,139.0,WeatherDisplay:10.37,2013-01-26 14:33:00,
2013-01-26 09:39:00,37.6,34.1,30.28,North,350,0.0,0.0,87,0.00,OVC,,0.04,181.0,WeatherDisplay:10.37,2013-01-26 14:39:00,
2013-01-26 09:44:00,37.9,34.4,30.29,North,350,0.0,0.0,87,0.00,OVC,,0.04,179.0,WeatherDisplay:10.37,2013-01-26 14:44:00,
2013-01-26 09:49:00,38.2,34.4,30.28,North,350,0.0,0.0,86,0.00,OVC,,0.04,169.0,WeatherDisplay:10.37,2013-01-26 14:49:00,
2013-01-26 09:54:00,38.6,35.4,30.28,North,350,0.0,0.0,88,0.00,OVC,,0.04,185.0,WeatherDisplay:10.37,2013-01-26 14:54:00,
2013-01-26 09:59:00,39.2,35.7,30.29,North,350,0.0,0.0,87,0.00,OVC,,0.04,181.0,WeatherDisplay:10.37,2013-01-26 14:59:00,
2013-01-26 10:05:00,39.5,35.4,30.30,North,350,3.0,3.0,85,0.00,OVC,,0.04,172.0,WeatherDisplay:10.37,2013-01-26 15:05:00,
2013-01-26 10:10:00,39.9,35.8,30.29,North,350,3.5,3.5,85,0.00,OVC,,0.04,186.0,WeatherDisplay:10.37,2013-01-26 15:10:00,
2013-01-26 10:15:00,40.1,35.7,30.30,North,350,0.0,0.0,84,0.00,OVC,,0.04,197.0,WeatherDisplay:10.37,2013-01-26 15:15:00,
2013-01-26 10:20:00,40.2,34.8,30.30,North,350,3.5,3.5,81,0.00,OVC,,0.04,202.0,WeatherDisplay:10.37,2013-01-26 15:20:00,
2013-01-26 10:26:00,40.4,35.6,30.30,North,350,0.0,0.0,83,0.00,OVC,,0.04,213.0,WeatherDisplay:10.37,2013-01-26 15:26:00,
2013-01-26 10:31:00,40.7,35.3,30.30,North,350,0.0,0.0,81,0.00,OVC,,0.04,213.0,WeatherDisplay:10.37,2013-01-26 15:31:00,
2013-01-26 10:36:00,41.3,36.5,30.30,North,350,2.3,2.3,83,0.00,OVC,,0.04,169.0,WeatherDisplay:10.37,2013-01-26 15:36:00,
2013-01-26 10:41:00,41.6,36.5,30.31,North,350,3.5,0.0,82,0.00,OVC,,0.04,179.0,WeatherDisplay:10.37,2013-01-26 15:41:00,
2013-01-26 10:46:00,41.9,35.9,30.31,North,350,0.0,0.0,79,0.00,OVC,,0.04,199.0,WeatherDisplay:10.37,2013-01-26 15:46:00,
2013-01-26 10:51:00,42.2,36.5,30.30,North,350,3.5,0.0,80,0.00,OVC,,0.04,243.0,WeatherDisplay:10.37,2013-01-26 15:51:00,
2013-01-26 10:57:00,42.7,36.6,30.31,North,350,0.0,0.0,79,0.00,OVC,,0.04,271.0,WeatherDisplay:10.37,2013-01-26 15:57:00,
2013-01-26 11:02:00,43.2,36.8,30.30,North,350,3.5,3.5,78,0.00,OVC,,0.04,290.0,WeatherDisplay:10.37,2013-01-26 16:02:00,
2013-01-26 11:07:00,43.8,36.4,30.31,North,350,0.0,0.0,75,0.00,OVC,,0.04,341.0,WeatherDisplay:10.37,2013-01-26 16:07:00,
2013-01-26 11:12:00,44.3,35.8,30.31,North,350,5.8,5.8,72,0.00,OVC,,0.04,209.0,WeatherDisplay:10.37,2013-01-26 16:12:00,
2013-01-26 11:17:00,44.9,38.5,30.31,North,349,4.0,4.0,78,0.00,OVC,,0.04,513.0,WeatherDisplay:10.37,2013-01-26 16:17:00,
2013-01-26 11:23:00,45.5,38.0,30.31,NNW,344,3.5,3.5,75,0.00,OVC,,0.04,257.0,WeatherDisplay:10.37,2013-01-26 16:23:00,
2013-01-26 11:28:00,45.9,38.1,30.31,NNW,344,2.0,2.0,74,0.00,OVC,,0.04,606.0,WeatherDisplay:10.37,2013-01-26 16:28:00,
2013-01-26 11:33:00,46.7,38.1,30.31,SW,217,6.9,6.9,72,0.00,OVC,,0.04,396.0,WeatherDisplay:10.37,2013-01-26 16:33:00,
2013-01-26 11:39:00,47.0,39.5,30.31,SW,217,5.8,5.8,75,0.00,OVC,,0.04,520.0,WeatherDisplay:10.37,2013-01-26 16:39:00,
2013-01-26 11:44:00,47.5,37.1,30.30,SW,217,2.3,0.0,67,0.00,OVC,,0.04,418.0,WeatherDisplay:10.37,2013-01-26 16:44:00,
2013-01-26 11:49:00,47.7,36.5,30.30,SW,217,4.6,4.6,65,0.00,OVC,,0.04,492.0,WeatherDisplay:10.37,2013-01-26 16:49:00,
2013-01-26 11:54:00,48.4,39.4,30.30,SW,217,6.0,6.0,71,0.00,OVC,,0.04,538.0,WeatherDisplay:10.37,2013-01-26 16:54:00,
2013-01-26 11:59:00,48.8,39.1,30.30,SSW,213,3.5,3.5,69,0.00,OVC,,0.04,367.0,WeatherDisplay:10.37,2013-01-26 16:59:00,
2013-01-26 12:05:00,49.1,36.2,30.30,SSW,212,5.0,5.0,61,0.00,OVC,,0.04,387.0,WeatherDisplay:10.37,2013-01-26 17:05:00,
2013-01-26 12:10:00,49.3,37.2,30.30,SSW,208,2.3,2.3,63,0.00,OVC,,0.04,360.0,WeatherDisplay:10.37,2013-01-26 17:10:00,
2013-01-26 12:15:00,49.6,39.8,30.30,SSW,208,2.0,2.0,69,0.00,OVC,,0.04,330.0,WeatherDisplay:10.37,2013-01-26 17:15:00,
2013-01-26 12:20:00,49.6,38.3,30.30,SSW,208,5.0,5.0,65,0.00,OVC,,0.04,334.0,WeatherDisplay:10.37,2013-01-26 17:20:00,
2013-01-26 12:26:00,49.8,37.3,30.30,SSW,206,3.5,3.5,62,0.00,OVC,,0.04,390.0,WeatherDisplay:10.37,2013-01-26 17:26:00,
2013-01-26 12:31:00,50.1,35.4,30.30,SSW,206,0.0,0.0,57,0.00,OVC,,0.04,415.0,WeatherDisplay:10.37,2013-01-26 17:31:00,
2013-01-26 12:36:00,50.8,32.3,30.30,SSW,208,5.8,5.8,49,0.00,OVC,,0.04,777.0,WeatherDisplay:10.37,2013-01-26 17:36:00,
2013-01-26 12:41:00,51.7,26.2,30.30,NNW,327,13.0,13.0,37,0.00,CLR,,0.04,499.0,WeatherDisplay:10.37,2013-01-26 17:41:00,
2013-01-26 12:46:00,52.2,23.2,30.30,NNW,344,20.0,20.0,32,0.00,CLR,,0.04,401.0,WeatherDisplay:10.37,2013-01-26 17:46:00,
2013-01-26 12:51:00,51.7,21.2,30.29,North,349,16.1,16.1,30,0.00,CLR,,0.04,418.0,WeatherDisplay:10.37,2013-01-26 17:51:00,
2013-01-26 12:57:00,51.7,21.2,30.29,NNW,332,11.5,11.5,30,0.00,CLR,,0.04,459.0,WeatherDisplay:10.37,2013-01-26 17:57:00,
2013-01-26 13:02:00,51.6,21.1,30.29,NNW,331,13.8,13.8,30,0.00,CLR,,0.04,404.0,WeatherDisplay:10.37,2013-01-26 18:02:00,
2013-01-26 13:07:00,51.7,21.2,30.30,NNW,328,16.1,16.1,30,0.00,CLR,,0.04,387.0,WeatherDisplay:10.37,2013-01-26 18:07:00,
2013-01-26 13:12:00,51.5,20.2,30.29,NNW,344,12.7,12.7,29,0.00,CLR,,0.04,436.0,WeatherDisplay:10.37,2013-01-26 18:12:00,
2013-01-26 13:17:00,51.6,18.7,30.29,North,5,13.8,13.8,27,0.00,CLR,,0.04,483.0,WeatherDisplay:10.37,2013-01-26 18:17:00,
2013-01-26 13:23:00,51.9,20.6,30.29,NNE,21,15.0,15.0,29,0.00,CLR,,0.04,497.0,WeatherDisplay:10.37,2013-01-26 18:23:00,
2013-01-26 13:28:00,52.1,19.1,30.28,NW,325,16.1,16.1,27,0.00,CLR,,0.04,475.0,WeatherDisplay:10.37,2013-01-26 18:28:00,
2013-01-26 13:33:00,52.1,19.9,30.29,NNE,25,9.2,9.2,28,0.00,CLR,,0.04,390.0,WeatherDisplay:10.37,2013-01-26 18:33:00,
2013-01-26 13:38:00,51.9,20.6,30.28,NNW,348,11.5,11.5,29,0.00,CLR,,0.04,513.0,WeatherDisplay:10.37,2013-01-26 18:38:00,
2013-01-26 13:43:00,52.1,21.6,30.28,NNE,21,14.0,14.0,30,0.00,CLR,,0.04,554.0,WeatherDisplay:10.37,2013-01-26 18:43:00,
2013-01-26 13:48:00,52.1,20.8,30.28,North,5,11.5,11.5,29,0.00,CLR,,0.04,443.0,WeatherDisplay:10.37,2013-01-26 18:48:00,
2013-01-26 13:54:00,52.1,21.6,30.28,North,5,11.5,11.5,30,0.00,CLR,,0.04,355.0,WeatherDisplay:10.37,2013-01-26 18:54:00,
2013-01-26 13:59:00,52.1,21.6,30.27,NNW,346,10.4,10.4,30,0.00,CLR,,0.04,417.0,WeatherDisplay:10.37,2013-01-26 18:59:00,
2013-01-26 14:04:00,52.0,23.0,30.27,NE,35,11.5,11.5,32,0.00,CLR,,0.04,468.0,WeatherDisplay:10.37,2013-01-26 19:04:00,
2013-01-26 14:09:00,52.3,22.5,30.27,NNW,342,11.5,11.5,31,0.00,CLR,,0.04,302.0,WeatherDisplay:10.37,2013-01-26 19:09:00,
2013-01-26 14:15:00,52.2,22.4,30.28,NNE,29,11.5,11.5,31,0.00,CLR,,0.04,436.0,WeatherDisplay:10.37,2013-01-26 19:15:00,
2013-01-26 14:20:00,52.3,21.7,30.28,North,355,13.8,13.8,30,0.00,CLR,,0.04,461.0,WeatherDisplay:10.37,2013-01-26 19:20:00,
2013-01-26 14:25:00,52.6,21.2,30.28,North,5,13.8,13.8,29,0.00,CLR,,0.04,388.0,WeatherDisplay:10.37,2013-01-26 19:25:00,
2013-01-26 14:30:00,52.6,21.2,30.28,North,5,13.8,13.8,29,0.00,CLR,,0.04,380.0,WeatherDisplay:10.37,2013-01-26 19:30:00,
2013-01-26 14:35:00,52.6,21.2,30.28,NNE,26,6.9,6.9,29,0.00,CLR,,0.04,355.0,WeatherDisplay:10.37,2013-01-26 19:35:00,
2013-01-26 14:41:00,52.7,21.3,30.27,NNW,336,10.4,10.4,29,0.00,CLR,,0.04,369.0,WeatherDisplay:10.37,2013-01-26 19:41:00,
2013-01-26 14:46:00,52.8,22.2,30.27,North,5,4.6,4.6,30,0.00,CLR,,0.04,411.0,WeatherDisplay:10.37,2013-01-26 19:46:00,
2013-01-26 14:51:00,53.1,22.4,30.27,NNW,333,12.7,12.7,30,0.00,CLR,,0.04,413.0,WeatherDisplay:10.37,2013-01-26 19:51:00,
2013-01-26 14:56:00,53.2,21.7,30.28,NNW,348,13.8,13.8,29,0.00,CLR,,0.04,452.0,WeatherDisplay:10.37,2013-01-26 19:56:00,
2013-01-26 15:01:00,53.3,22.6,30.28,North,355,11.5,11.5,30,0.00,CLR,,0.04,403.0,WeatherDisplay:10.37,2013-01-26 20:01:00,
2013-01-26 15:07:00,53.3,21.0,30.27,NW,324,5.8,5.8,28,0.00,CLR,,0.04,443.0,WeatherDisplay:10.37,2013-01-26 20:07:00,
2013-01-26 15:12:00,53.5,21.2,30.28,NNW,331,10.4,10.4,28,0.00,CLR,,0.04,432.0,WeatherDisplay:10.37,2013-01-26 20:12:00,
2013-01-26 15:17:00,53.8,21.4,30.27,NNW,337,12.0,12.0,28,0.00,CLR,,0.04,459.0,WeatherDisplay:10.37,2013-01-26 20:17:00,
2013-01-26 15:22:00,54.0,23.2,30.27,WNW,283,6.9,6.9,30,0.00,CLR,,0.04,446.0,WeatherDisplay:10.37,2013-01-26 20:22:00,
2013-01-26 15:27:00,54.5,22.9,30.27,NE,34,6.9,6.9,29,0.00,CLR,,0.04,434.0,WeatherDisplay:10.37,2013-01-26 20:27:00,
2013-01-26 15:33:00,54.8,22.3,30.27,NNW,339,3.5,3.5,28,0.00,FEW,,0.04,343.0,WeatherDisplay:10.37,2013-01-26 20:33:00,
2013-01-26 15:38:00,55.1,32.4,30.28,WSW,237,10.4,10.4,42,0.00,FEW,,0.04,396.0,WeatherDisplay:10.37,2013-01-26 20:38:00,
2013-01-26 15:43:00,55.0,34.0,30.28,SW,234,4.6,4.6,45,0.00,FEW,,0.04,359.0,WeatherDisplay:10.37,2013-01-26 20:43:00,
2013-01-26 15:48:00,54.9,36.1,30.28,WSW,249,10.4,10.4,49,0.00,SCT,,0.04,346.0,WeatherDisplay:10.37,2013-01-26 20:48:00,
2013-01-26 15:53:00,54.4,34.6,30.28,SW,226,11.5,11.5,47,0.00,SCT,,0.04,313.0,WeatherDisplay:10.37,2013-01-26 20:53:00,
2013-01-26 15:59:00,53.9,35.7,30.28,SW,225,10.4,10.4,50,0.00,SCT,,0.04,332.0,WeatherDisplay:10.37,2013-01-26 20:59:00,
2013-01-26 16:04:00,53.6,34.9,30.28,SW,234,11.5,11.5,49,0.00,SCT,,0.04,322.0,WeatherDisplay:10.37,2013-01-26 21:04:00,
2013-01-26 16:09:00,53.6,35.4,30.28,WSW,240,10.4,10.4,50,0.00,SCT,,0.04,309.0,WeatherDisplay:10.37,2013-01-26 21:09:00,
2013-01-26 16:14:00,53.5,35.3,30.28,WSW,240,9.2,9.2,50,0.00,SCT,,0.04,297.0,WeatherDisplay:10.37,2013-01-26 21:14:00,
2013-01-26 16:19:00,53.5,35.3,30.28,WSW,243,9.2,9.2,50,0.00,BKN,,0.04,283.0,WeatherDisplay:10.37,2013-01-26 21:19:00,
2013-01-26 16:24:00,53.5,35.3,30.27,WSW,246,9.2,9.2,50,0.00,BKN,,0.04,264.0,WeatherDisplay:10.37,2013-01-26 21:24:00,
2013-01-26 16:30:00,53.5,35.3,30.27,WSW,257,9.2,9.2,50,0.00,BKN,,0.04,250.0,WeatherDisplay:10.37,2013-01-26 21:30:00,
2013-01-26 16:35:00,53.4,34.7,30.28,West,259,7.0,7.0,49,0.00,BKN,,0.04,230.0,WeatherDisplay:10.37,2013-01-26 21:35:00,
2013-01-26 16:40:00,53.3,34.6,30.28,WSW,256,8.1,8.1,49,0.00,BKN,,0.04,218.0,WeatherDisplay:10.37,2013-01-26 21:40:00,
2013-01-26 16:45:00,53.0,35.3,30.28,WSW,253,8.1,8.1,51,0.00,OVC,,0.04,200.0,WeatherDisplay:10.37,2013-01-26 21:45:00,
2013-01-26 16:51:00,52.8,34.7,30.28,WSW,253,10.4,10.4,50,0.00,OVC,,0.04,183.0,WeatherDisplay:10.37,2013-01-26 21:51:00,
2013-01-26 16:56:00,52.6,35.0,30.27,WSW,252,6.9,6.9,51,0.00,OVC,,0.04,167.0,WeatherDisplay:10.37,2013-01-26 21:56:00,
2013-01-26 17:01:00,52.5,35.8,30.27,WSW,252,8.1,8.1,53,0.00,OVC,,0.04,153.0,WeatherDisplay:10.37,2013-01-26 22:01:00,
2013-01-26 17:06:00,52.4,36.7,30.27,West,261,5.8,5.8,55,0.00,OVC,,0.04,137.0,WeatherDisplay:10.37,2013-01-26 22:06:00,
2013-01-26 17:11:00,52.5,36.3,30.27,West,261,9.2,9.2,54,0.00,OVC,,0.04,127.0,WeatherDisplay:10.37,2013-01-26 22:11:00,
2013-01-26 17:16:00,52.1,35.9,30.27,West,261,6.0,6.0,54,0.00,OVC,,0.04,109.0,WeatherDisplay:10.37,2013-01-26 22:16:00,
2013-01-26 17:21:00,52.0,35.9,30.27,West,261,5.8,5.8,54,0.00,OVC,,0.04,91.0,WeatherDisplay:10.37,2013-01-26 22:21:00,
2013-01-26 17:27:00,51.6,35.9,30.28,West,262,7.0,7.0,55,0.00,OVC,,0.04,74.0,WeatherDisplay:10.37,2013-01-26 22:27:00,
2013-01-26 17:32:00,51.1,36.4,30.28,West,263,4.6,4.6,57,0.00,OVC,,0.04,32.0,WeatherDisplay:10.37,2013-01-26 22:32:00,
2013-01-26 17:37:00,50.8,36.1,30.28,West,263,5.0,5.0,57,0.00,OVC,,0.04,42.0,WeatherDisplay:10.37,2013-01-26 22:37:00,
2013-01-26 17:42:00,50.5,35.8,30.28,West,263,4.6,4.6,57,0.00,OVC,,0.04,23.0,WeatherDisplay:10.37,2013-01-26 22:42:00,
2013-01-26 17:47:00,50.0,36.2,30.28,West,263,6.0,6.0,59,0.00,OVC,,0.04,16.0,WeatherDisplay:10.37,2013-01-26 22:47:00,
2013-01-26 17:52:00,49.0,36.1,30.28,West,263,6.9,6.9,61,0.00,OVC,,0.04,9.0,WeatherDisplay:10.37,2013-01-26 22:52:00,
2013-01-26 17:58:00,48.1,36.1,30.29,West,263,4.6,4.6,63,0.00,OVC,,0.04,5.0,WeatherDisplay:10.37,2013-01-26 22:58:00,
2013-01-26 18:03:00,47.5,35.9,30.29,West,263,3.5,3.5,64,0.00,OVC,,0.04,0.0,WeatherDisplay:10.37,2013-01-26 23:03:00,
2013-01-26 18:08:00,47.1,35.9,30.29,West,263,8.1,8.1,65,0.00,OVC,,0.04,0.0,WeatherDisplay:10.37,2013-01-26 23:08:00,
2013-01-26 18:13:00,46.6,35.8,30.29,West,263,6.0,6.0,66,0.00,OVC,,0.04,0.0,WeatherDisplay:10.37,2013-01-26 23:13:00,
2013-01-26 18:18:00,46.1,35.4,30.29,West,263,5.8,5.8,66,0.00,OVC,,0.04,0.0,WeatherDisplay:10.37,2013-01-26 23:18:00,
2013-01-26 18:24:00,45.7,35.4,30.29,West,263,4.6,4.6,67,0.00,OVC,,0.04,0.0,WeatherDisplay:10.37,2013-01-26 23:24:00,
2013-01-26 18:29:00,45.3,35.4,30.29,West,262,6.9,6.9,68,0.00,OVC,,0.04,0.0,WeatherDisplay:10.37,2013-01-26 23:29:00,
2013-01-26 18:34:00,45.0,35.1,30.29,West,262,4.6,4.6,68,0.00,CLR,,0.04,0.0,WeatherDisplay:10.37,2013-01-26 23:34:00,
2013-01-26 18:39:00,44.9,35.0,30.29,West,262,4.6,4.6,68,0.00,CLR,,0.04,0.0,WeatherDisplay:10.37,2013-01-26 23:39:00,
2013-01-26 18:45:00,44.7,34.8,30.30,West,262,5.8,5.8,68,0.00,CLR,,0.04,0.0,WeatherDisplay:10.37,2013-01-26 23:45:00,
2013-01-26 18:50:00,44.6,34.7,30.29,West,262,4.6,4.6,68,0.00,CLR,,0.04,0.0,WeatherDisplay:10.37,2013-01-26 23:50:00,
2013-01-26 18:55:00,44.3,34.4,30.30,West,262,3.5,3.5,68,0.00,CLR,,0.04,0.0,WeatherDisplay:10.37,2013-01-26 23:55:00,
2013-01-26 19:00:00,44.0,34.5,30.30,West,263,6.9,6.9,69,0.00,CLR,,0.04,0.0,WeatherDisplay:10.37,2013-01-27 00:00:00,
2013-01-26 19:05:00,43.8,34.3,30.30,West,263,5.0,5.0,69,0.00,CLR,,0.04,0.0,WeatherDisplay:10.37,2013-01-27 00:05:00,
2013-01-26 19:11:00,43.4,34.3,30.30,West,263,7.0,7.0,70,0.00,CLR,,0.04,0.0,WeatherDisplay:10.37,2013-01-27 00:11:00,
2013-01-26 19:16:00,43.0,34.2,30.30,West,264,5.8,5.8,71,0.00,CLR,,0.04,0.0,WeatherDisplay:10.37,2013-01-27 00:16:00,
2013-01-26 19:21:00,42.8,34.0,30.30,West,264,0.0,0.0,71,0.00,CLR,,0.04,0.0,WeatherDisplay:10.37,2013-01-27 00:21:00,
2013-01-26 19:26:00,42.6,33.9,30.30,West,264,3.5,3.5,71,0.00,CLR,,0.04,0.0,WeatherDisplay:10.37,2013-01-27 00:26:00,
2013-01-26 19:32:00,42.3,33.9,30.30,West,264,0.0,0.0,72,0.00,CLR,,0.04,0.0,WeatherDisplay:10.37,2013-01-27 00:32:00,
2013-01-26 19:37:00,42.1,33.7,30.30,West,264,4.6,4.6,72,0.00,CLR,,0.04,0.0,WeatherDisplay:10.37,2013-01-27 00:37:00,
2013-01-26 19:42:00,41.9,33.5,30.30,West,264,4.6,4.6,72,0.00,CLR,,0.04,0.0,WeatherDisplay:10.37,2013-01-27 00:42:00,
2013-01-26 19:47:00,41.7,33.3,30.30,West,264,5.0,5.0,72,0.00,CLR,,0.04,0.0,WeatherDisplay:10.37,2013-01-27 00:47:00,
2013-01-26 19:53:00,41.5,33.1,30.30,West,264,3.5,3.5,72,0.00,CLR,,0.04,0.0,WeatherDisplay:10.37,2013-01-27 00:53:00,
2013-01-26 19:58:00,41.3,32.6,30.30,West,264,4.0,4.0,71,0.00,CLR,,0.04,0.0,WeatherDisplay:10.37,2013-01-27 00:58:00,
2013-01-26 20:03:00,41.3,32.2,30.30,West,264,3.5,3.5,70,0.00,CLR,,0.04,0.0,WeatherDisplay:10.37,2013-01-27 01:03:00,
2013-01-26 20:08:00,41.3,31.5,30.30,West,264,0.0,0.0,68,0.00,CLR,,0.04,0.0,WeatherDisplay:10.37,2013-01-27 01:08:00,
2013-01-26 20:13:00,41.3,31.5,30.31,West,264,0.0,0.0,68,0.00,CLR,,0.04,0.0,WeatherDisplay:10.37,2013-01-27 01:13:00,
2013-01-26 20:18:00,41.0,32.0,30.31,West,264,0.0,0.0,70,0.00,CLR,,0.04,0.0,WeatherDisplay:10.37,2013-01-27 01:18:00,
2013-01-26 20:24:00,40.4,31.7,30.31,West,264,0.0,0.0,71,0.00,CLR,,0.04,0.0,WeatherDisplay:10.37,2013-01-27 01:24:00,
2013-01-26 20:29:00,40.2,30.8,30.31,West,264,0.0,0.0,69,0.00,CLR,,0.04,0.0,WeatherDisplay:10.37,2013-01-27 01:29:00,
2013-01-26 20:34:00,40.1,31.1,30.31,West,264,0.0,0.0,70,0.00,CLR,,0.04,0.0,WeatherDisplay:10.37,2013-01-27 01:34:00,
2013-01-26 20:39:00,39.7,31.8,30.31,West,264,0.0,0.0,73,0.00,CLR,,0.04,0.0,WeatherDisplay:10.37,2013-01-27 01:39:00,
2013-01-26 20:44:00,39.3,31.7,30.31,West,264,0.0,0.0,74,0.00,CLR,,0.04,0.0,WeatherDisplay:10.37,2013-01-27 01:44:00,
2013-01-26 20:50:00,38.7,31.5,30.32,West,264,0.0,0.0,75,0.00,CLR,,0.04,0.0,WeatherDisplay:10.37,2013-01-27 01:50:00,
2013-01-26 20:55:00,37.9,31.3,30.32,West,264,0.0,0.0,77,0.00,CLR,,0.04,0.0,WeatherDisplay:10.37,2013-01-27 01:55:00,
2013-01-26 21:00:00,37.4,31.2,30.32,West,264,0.0,1.0,78,0.00,CLR,,0.04,0.0,WeatherDisplay:10.37,2013-01-27 02:00:00,
2013-01-26 21:05:00,37.1,31.2,30.31,West,264,0.0,0.0,79,0.00,CLR,,0.04,0.0,WeatherDisplay:10.37,2013-01-27 02:05:00,
2013-01-26 21:10:00,37.2,30.9,30.31,West,264,0.0,0.0,78,0.00,CLR,,0.04,0.0,WeatherDisplay:10.37,2013-01-27 02:10:00,
2013-01-26 21:15:00,37.3,30.7,30.32,West,264,0.0,0.0,77,0.00,CLR,,0.04,0.0,WeatherDisplay:10.37,2013-01-27 02:15:00,
2013-01-26 21:20:00,37.5,30.6,30.32,West,264,0.0,0.0,76,0.00,CLR,,0.04,0.0,WeatherDisplay:10.37,2013-01-27 02:20:00,
2013-01-26 21:25:00,37.7,30.5,30.32,West,264,0.0,0.0,75,0.00,CLR,,0.04,0.0,WeatherDisplay:10.37,2013-01-27 02:25:00,
2013-01-26 21:30:00,37.7,30.2,30.32,West,264,0.0,0.0,74,0.00,CLR,,0.04,0.0,WeatherDisplay:10.37,2013-01-27 02:30:00,
2013-01-26 21:36:00,37.8,28.9,30.32,West,264,0.0,0.0,70,0.00,CLR,,0.04,0.0,WeatherDisplay:10.37,2013-01-27 02:36:00,
2013-01-26 21:41:00,37.9,29.7,30.32,West,270,6.0,6.0,72,0.00,CLR,,0.04,0.0,WeatherDisplay:10.37,2013-01-27 02:41:00,
2013-01-26 21:46:00,37.3,29.8,30.32,NE,44,8.1,8.1,74,0.00,CLR,,0.04,0.0,WeatherDisplay:10.37,2013-01-27 02:46:00,
2013-01-26 21:51:00,37.1,28.6,30.32,NE,45,9.2,9.2,71,0.00,CLR,,0.04,0.0,WeatherDisplay:10.37,2013-01-27 02:51:00,
2013-01-26 21:56:00,36.3,29.1,30.33,NE,45,1.2,1.2,75,0.00,CLR,,0.04,0.0,WeatherDisplay:10.37,2013-01-27 02:56:00,
2013-01-26 22:02:00,35.3,29.1,30.33,NE,45,0.0,0.0,78,0.00,CLR,,0.04,0.0,WeatherDisplay:10.37,2013-01-27 03:02:00,
2013-01-26 22:07:00,34.9,29.0,30.33,NE,45,0.0,0.0,79,0.00,CLR,,0.04,0.0,WeatherDisplay:10.37,2013-01-27 03:07:00,
2013-01-26 22:12:00,34.9,28.7,30.33,NE,45,0.0,0.0,78,0.00,CLR,,0.04,0.0,WeatherDisplay:10.37,2013-01-27 03:12:00,
2013-01-26 22:17:00,35.1,28.9,30.33,NE,45,0.0,0.0,78,0.00,CLR,,0.04,0.0,WeatherDisplay:10.37,2013-01-27 03:17:00,
2013-01-26 22:22:00,35.5,28.7,30.33,NE,45,0.0,0.0,76,0.00,CLR,,0.04,0.0,WeatherDisplay:10.37,2013-01-27 03:22:00,
2013-01-26 22:28:00,35.9,29.1,30.34,NE,45,3.5,3.5,76,0.00,CLR,,0.04,0.0,WeatherDisplay:10.37,2013-01-27 03:28:00,
2013-01-26 22:33:00,35.2,28.7,30.33,NNE,33,6.9,6.9,77,0.00,CLR,,0.04,0.0,WeatherDisplay:10.37,2013-01-27 03:33:00,
2013-01-26 22:38:00,34.3,27.8,30.33,NNE,31,6.9,6.9,77,0.00,CLR,,0.04,0.0,WeatherDisplay:10.37,2013-01-27 03:38:00,
2013-01-26 22:43:00,34.4,27.6,30.33,NNE,31,3.5,3.5,76,0.00,CLR,,0.04,0.0,WeatherDisplay:10.37,2013-01-27 03:43:00,
2013-01-26 22:48:00,35.0,27.9,30.33,NNE,31,2.3,2.3,75,0.00,CLR,,0.04,0.0,WeatherDisplay:10.37,2013-01-27 03:48:00,
2013-01-26 22:53:00,35.7,27.9,30.33,NNE,31,3.5,3.5,73,0.00,CLR,,0.04,0.0,WeatherDisplay:10.37,2013-01-27 03:53:00,
2013-01-26 22:59:00,36.3,27.1,30.33,NNE,31,3.5,3.5,69,0.00,CLR,,0.04,0.0,WeatherDisplay:10.37,2013-01-27 03:59:00,
2013-01-26 23:04:00,36.9,26.6,30.33,NNE,31,4.6,4.6,66,0.00,CLR,,0.04,0.0,WeatherDisplay:10.37,2013-01-27 04:04:00,
2013-01-26 23:09:00,37.5,26.4,30.33,NNE,32,5.0,5.0,64,0.00,CLR,,0.04,0.0,WeatherDisplay:10.37,2013-01-27 04:09:00,
2013-01-26 23:14:00,37.8,26.3,30.33,NNE,32,4.6,4.9,63,0.00,CLR,,0.04,0.0,WeatherDisplay:10.37,2013-01-27 04:14:00,
2013-01-26 23:19:00,37.9,26.0,30.33,NE,40,5.8,5.8,62,0.00,CLR,,0.04,0.0,WeatherDisplay:10.37,2013-01-27 04:19:00,
2013-01-26 23:25:00,37.9,27.5,30.33,NE,41,3.5,3.5,66,0.00,CLR,,0.04,0.0,WeatherDisplay:10.37,2013-01-27 04:25:00,
2013-01-26 23:30:00,36.7,27.5,30.33,NE,41,0.0,0.0,69,0.00,CLR,,0.04,0.0,WeatherDisplay:10.37,2013-01-27 04:30:00,
2013-01-26 23:35:00,35.9,27.4,30.33,NE,41,0.0,0.0,71,0.00,CLR,,0.04,0.0,WeatherDisplay:10.37,2013-01-27 04:35:00,
2013-01-26 23:40:00,35.4,26.2,30.33,NE,41,0.0,0.0,69,0.00,CLR,,0.04,0.0,WeatherDisplay:10.37,2013-01-27 04:40:00,
2013-01-26 23:45:00,35.5,26.3,30.33,NE,41,0.0,0.0,69,0.00,CLR,,0.04,0.0,WeatherDisplay:10.37,2013-01-27 04:45:00,
2013-01-26 23:50:00,35.1,27.3,30.33,NE,41,0.0,0.0,73,0.00,CLR,,0.04,0.0,WeatherDisplay:10.37,2013-01-27 04:50:00,
2013-01-26 23:55:00,34.6,27.2,30.33,NE,41,0.0,0.0,74,0.00,CLR,,0.04,0.0,WeatherDisplay:10.37,2013-01-27 04:55:00,